sensor_id;sensor_type;location;lat;lon;timestamp;temperature;humidity
5210;DHT22;2624;48.048;11.706;2023-08-06T00:01:46;15.00;99.90
5210;DHT22;2624;48.048;11.706;2023-08-06T00:06:48;15.10;99.90
5210;DHT22;2624;48.048;11.706;2023-08-06T00:11:51;15.20;99.90
5210;DHT22;2624;48.048;11.706;2023-08-06T00:16:53;15.30;99.90
5210;DHT22;2624;48.048;11.706;2023-08-06T00:21:55;15.10;99.90
5210;DHT22;2624;48.048;11.706;2023-08-06T00:26:58;15.10;99.90
5210;DHT22;2624;48.048;11.706;2023-08-06T00:31:59;15.00;99.90
5210;DHT22;2624;48.048;11.706;2023-08-06T00:37:01;15.00;99.90
5210;DHT22;2624;48.048;11.706;2023-08-06T00:42:05;15.00;99.90
5210;DHT22;2624;48.048;11.706;2023-08-06T00:47:07;15.00;99.90
5210;DHT22;2624;48.048;11.706;2023-08-06T00:52:10;15.00;99.90
5210;DHT22;2624;48.048;11.706;2023-08-06T00:57:15;15.10;99.90
5210;DHT22;2624;48.048;11.706;2023-08-06T01:02:17;14.90;99.90
5210;DHT22;2624;48.048;11.706;2023-08-06T01:07:25;14.90;99.90
5210;DHT22;2624;48.048;11.706;2023-08-06T01:12:37;14.80;99.90
5210;DHT22;2624;48.048;11.706;2023-08-06T01:17:41;14.90;99.90
5210;DHT22;2624;48.048;11.706;2023-08-06T01:22:45;14.80;99.90
5210;DHT22;2624;48.048;11.706;2023-08-06T01:27:48;14.90;99.90
5210;DHT22;2624;48.048;11.706;2023-08-06T01:32:54;14.90;99.90
5210;DHT22;2624;48.048;11.706;2023-08-06T01:38:00;14.80;99.90
5210;DHT22;2624;48.048;11.706;2023-08-06T01:43:02;14.80;99.90
5210;DHT22;2624;48.048;11.706;2023-08-06T01:48:04;14.80;99.90
5210;DHT22;2624;48.048;11.706;2023-08-06T01:53:07;14.90;99.90
5210;DHT22;2624;48.048;11.706;2023-08-06T01:58:09;14.80;99.90
5210;DHT22;2624;48.048;11.706;2023-08-06T02:03:11;14.40;99.90
5210;DHT22;2624;48.048;11.706;2023-08-06T02:08:14;14.30;99.90
5210;DHT22;2624;48.048;11.706;2023-08-06T02:13:16;14.10;99.90
5210;DHT22;2624;48.048;11.706;2023-08-06T02:18:17;14.00;99.90
5210;DHT22;2624;48.048;11.706;2023-08-06T02:23:20;14.10;99.90
5210;DHT22;2624;48.048;11.706;2023-08-06T02:28:22;14.00;99.90
5210;DHT22;2624;48.048;11.706;2023-08-06T02:33:24;14.00;99.90
5210;DHT22;2624;48.048;11.706;2023-08-06T02:38:27;13.90;99.90
5210;DHT22;2624;48.048;11.706;2023-08-06T02:43:29;13.80;99.90
5210;DHT22;2624;48.048;11.706;2023-08-06T02:48:31;13.70;99.90
5210;DHT22;2624;48.048;11.706;2023-08-06T02:53:34;13.80;99.90
5210;DHT22;2624;48.048;11.706;2023-08-06T02:58:36;13.70;99.90
5210;DHT22;2624;48.048;11.706;2023-08-06T03:03:38;13.70;99.90
5210;DHT22;2624;48.048;11.706;2023-08-06T03:08:41;13.70;99.90
5210;DHT22;2624;48.048;11.706;2023-08-06T03:13:43;13.80;99.90
5210;DHT22;2624;48.048;11.706;2023-08-06T03:18:45;13.80;99.90
5210;DHT22;2624;48.048;11.706;2023-08-06T03:23:48;13.70;99.90
5210;DHT22;2624;48.048;11.706;2023-08-06T03:28:50;13.60;99.90
5210;DHT22;2624;48.048;11.706;2023-08-06T03:33:52;13.50;99.90
5210;DHT22;2624;48.048;11.706;2023-08-06T03:38:55;13.50;99.90
5210;DHT22;2624;48.048;11.706;2023-08-06T03:43:56;13.60;99.90
5210;DHT22;2624;48.048;11.706;2023-08-06T03:48:58;13.50;99.90
5210;DHT22;2624;48.048;11.706;2023-08-06T03:54:01;13.40;99.90
5210;DHT22;2624;48.048;11.706;2023-08-06T03:59:03;13.40;99.90
5210;DHT22;2624;48.048;11.706;2023-08-06T04:04:05;13.40;99.90
5210;DHT22;2624;48.048;11.706;2023-08-06T04:09:08;13.40;99.90
5210;DHT22;2624;48.048;11.706;2023-08-06T04:14:10;13.40;99.90
5210;DHT22;2624;48.048;11.706;2023-08-06T04:19:11;13.20;99.90
5210;DHT22;2624;48.048;11.706;2023-08-06T04:24:14;13.20;99.90
5210;DHT22;2624;48.048;11.706;2023-08-06T04:29:16;13.20;99.90
5210;DHT22;2624;48.048;11.706;2023-08-06T04:34:18;13.30;99.90
5210;DHT22;2624;48.048;11.706;2023-08-06T04:39:21;13.40;99.90
5210;DHT22;2624;48.048;11.706;2023-08-06T04:44:23;13.20;99.90
5210;DHT22;2624;48.048;11.706;2023-08-06T04:49:25;13.40;99.90
5210;DHT22;2624;48.048;11.706;2023-08-06T04:54:28;13.20;99.90
5210;DHT22;2624;48.048;11.706;2023-08-06T04:59:30;13.40;99.90
5210;DHT22;2624;48.048;11.706;2023-08-06T05:04:31;13.30;99.90
5210;DHT22;2624;48.048;11.706;2023-08-06T05:09:35;13.40;99.90
5210;DHT22;2624;48.048;11.706;2023-08-06T05:14:36;13.40;99.90
5210;DHT22;2624;48.048;11.706;2023-08-06T05:19:38;13.30;99.90
5210;DHT22;2624;48.048;11.706;2023-08-06T05:24:41;13.40;99.90
5210;DHT22;2624;48.048;11.706;2023-08-06T05:29:43;13.30;99.90
5210;DHT22;2624;48.048;11.706;2023-08-06T05:34:45;13.30;99.90
5210;DHT22;2624;48.048;11.706;2023-08-06T05:39:48;13.30;99.90
5210;DHT22;2624;48.048;11.706;2023-08-06T05:44:50;13.40;99.90
5210;DHT22;2624;48.048;11.706;2023-08-06T05:49:52;13.60;99.90
5210;DHT22;2624;48.048;11.706;2023-08-06T05:54:55;13.60;99.90
5210;DHT22;2624;48.048;11.706;2023-08-06T05:59:57;13.70;99.90
5210;DHT22;2624;48.048;11.706;2023-08-06T06:04:59;13.90;99.90
5210;DHT22;2624;48.048;11.706;2023-08-06T06:10:02;13.90;99.90
5210;DHT22;2624;48.048;11.706;2023-08-06T06:15:05;13.90;99.90
5210;DHT22;2624;48.048;11.706;2023-08-06T06:20:07;14.00;99.90
5210;DHT22;2624;48.048;11.706;2023-08-06T06:25:11;14.00;99.90
5210;DHT22;2624;48.048;11.706;2023-08-06T06:30:12;14.10;99.90
5210;DHT22;2624;48.048;11.706;2023-08-06T06:35:14;14.00;99.90
5210;DHT22;2624;48.048;11.706;2023-08-06T06:40:18;14.00;99.90
5210;DHT22;2624;48.048;11.706;2023-08-06T06:45:20;14.00;99.90
5210;DHT22;2624;48.048;11.706;2023-08-06T06:50:21;14.10;99.90
5210;DHT22;2624;48.048;11.706;2023-08-06T06:55:25;14.20;99.90
5210;DHT22;2624;48.048;11.706;2023-08-06T07:00:28;14.30;99.90
5210;DHT22;2624;48.048;11.706;2023-08-06T07:05:29;14.40;99.90
5210;DHT22;2624;48.048;11.706;2023-08-06T07:10:33;14.50;99.90
5210;DHT22;2624;48.048;11.706;2023-08-06T07:15:34;14.50;99.90
5210;DHT22;2624;48.048;11.706;2023-08-06T07:20:36;14.70;99.90
5210;DHT22;2624;48.048;11.706;2023-08-06T07:25:39;14.70;99.90
5210;DHT22;2624;48.048;11.706;2023-08-06T07:30:41;14.70;99.90
5210;DHT22;2624;48.048;11.706;2023-08-06T07:35:43;14.80;99.90
5210;DHT22;2624;48.048;11.706;2023-08-06T07:40:47;14.60;99.90
5210;DHT22;2624;48.048;11.706;2023-08-06T07:45:48;14.60;99.90
5210;DHT22;2624;48.048;11.706;2023-08-06T07:50:51;14.50;99.90
5210;DHT22;2624;48.048;11.706;2023-08-06T07:55:55;14.50;99.90
5210;DHT22;2624;48.048;11.706;2023-08-06T08:00:57;14.50;99.90
5210;DHT22;2624;48.048;11.706;2023-08-06T08:05:59;14.40;99.90
5210;DHT22;2624;48.048;11.706;2023-08-06T08:11:02;14.40;99.90
5210;DHT22;2624;48.048;11.706;2023-08-06T08:16:04;14.40;99.90
5210;DHT22;2624;48.048;11.706;2023-08-06T08:21:06;14.50;99.90
5210;DHT22;2624;48.048;11.706;2023-08-06T08:26:09;14.60;99.90
5210;DHT22;2624;48.048;11.706;2023-08-06T08:31:11;14.80;99.90
5210;DHT22;2624;48.048;11.706;2023-08-06T08:36:13;14.90;99.90
5210;DHT22;2624;48.048;11.706;2023-08-06T08:41:16;15.10;99.90
5210;DHT22;2624;48.048;11.706;2023-08-06T08:46:19;15.10;99.90
5210;DHT22;2624;48.048;11.706;2023-08-06T08:51:20;15.10;99.90
5210;DHT22;2624;48.048;11.706;2023-08-06T08:56:24;15.00;99.90
5210;DHT22;2624;48.048;11.706;2023-08-06T09:01:26;15.10;99.90
5210;DHT22;2624;48.048;11.706;2023-08-06T09:06:30;15.10;99.90
5210;DHT22;2624;48.048;11.706;2023-08-06T09:11:39;15.00;99.90
5210;DHT22;2624;48.048;11.706;2023-08-06T09:16:44;15.00;99.90
5210;DHT22;2624;48.048;11.706;2023-08-06T09:21:46;15.00;99.90
5210;DHT22;2624;48.048;11.706;2023-08-06T09:26:50;14.90;99.90
5210;DHT22;2624;48.048;11.706;2023-08-06T09:31:53;14.90;99.90
5210;DHT22;2624;48.048;11.706;2023-08-06T09:36:55;14.90;99.90
5210;DHT22;2624;48.048;11.706;2023-08-06T09:41:59;14.80;99.90
5210;DHT22;2624;48.048;11.706;2023-08-06T09:47:02;14.90;99.90
5210;DHT22;2624;48.048;11.706;2023-08-06T09:52:05;15.00;99.90
5210;DHT22;2624;48.048;11.706;2023-08-06T09:57:08;15.00;99.90
5210;DHT22;2624;48.048;11.706;2023-08-06T10:02:12;15.10;99.90
5210;DHT22;2624;48.048;11.706;2023-08-06T10:07:14;15.40;99.90
5210;DHT22;2624;48.048;11.706;2023-08-06T10:12:21;15.40;99.90
5210;DHT22;2624;48.048;11.706;2023-08-06T10:17:23;15.40;99.90
5210;DHT22;2624;48.048;11.706;2023-08-06T10:22:25;15.30;99.90
5210;DHT22;2624;48.048;11.706;2023-08-06T10:27:31;15.40;99.90
5210;DHT22;2624;48.048;11.706;2023-08-06T10:32:46;15.50;99.90
5210;DHT22;2624;48.048;11.706;2023-08-06T10:37:49;15.50;99.90
5210;DHT22;2624;48.048;11.706;2023-08-06T10:42:52;15.50;99.90
5210;DHT22;2624;48.048;11.706;2023-08-06T10:47:54;15.60;99.90
5210;DHT22;2624;48.048;11.706;2023-08-06T10:52:56;15.50;99.90
5210;DHT22;2624;48.048;11.706;2023-08-06T10:57:59;15.40;99.90
5210;DHT22;2624;48.048;11.706;2023-08-06T11:03:01;15.40;99.90
5210;DHT22;2624;48.048;11.706;2023-08-06T11:08:04;15.40;99.90
5210;DHT22;2624;48.048;11.706;2023-08-06T11:13:08;15.50;99.90
5210;DHT22;2624;48.048;11.706;2023-08-06T11:18:09;15.60;99.90
5210;DHT22;2624;48.048;11.706;2023-08-06T11:23:11;15.70;99.90
5210;DHT22;2624;48.048;11.706;2023-08-06T11:28:14;15.70;99.90
5210;DHT22;2624;48.048;11.706;2023-08-06T11:33:20;15.70;99.90
5210;DHT22;2624;48.048;11.706;2023-08-06T11:38:24;15.50;99.90
5210;DHT22;2624;48.048;11.706;2023-08-06T11:43:30;15.40;99.90
5210;DHT22;2624;48.048;11.706;2023-08-06T11:48:51;15.50;99.90
5210;DHT22;2624;48.048;11.706;2023-08-06T11:53:55;15.30;99.90
5210;DHT22;2624;48.048;11.706;2023-08-06T11:58:58;15.20;99.90
5210;DHT22;2624;48.048;11.706;2023-08-06T12:04:00;15.40;99.90
5210;DHT22;2624;48.048;11.706;2023-08-06T12:09:02;15.40;99.90
5210;DHT22;2624;48.048;11.706;2023-08-06T12:14:05;15.50;99.90
5210;DHT22;2624;48.048;11.706;2023-08-06T12:19:06;15.50;99.90
5210;DHT22;2624;48.048;11.706;2023-08-06T12:24:08;15.50;99.90
5210;DHT22;2624;48.048;11.706;2023-08-06T12:29:12;15.40;99.90
5210;DHT22;2624;48.048;11.706;2023-08-06T12:34:14;15.30;99.90
5210;DHT22;2624;48.048;11.706;2023-08-06T12:39:16;15.40;99.90
5210;DHT22;2624;48.048;11.706;2023-08-06T12:44:19;15.40;99.90
5210;DHT22;2624;48.048;11.706;2023-08-06T12:49:21;15.30;99.90
5210;DHT22;2624;48.048;11.706;2023-08-06T12:54:22;15.40;99.90
5210;DHT22;2624;48.048;11.706;2023-08-06T12:59:26;15.40;99.90
5210;DHT22;2624;48.048;11.706;2023-08-06T13:04:28;15.40;99.90
5210;DHT22;2624;48.048;11.706;2023-08-06T13:09:30;15.40;99.90
5210;DHT22;2624;48.048;11.706;2023-08-06T13:14:33;15.30;99.90
5210;DHT22;2624;48.048;11.706;2023-08-06T13:19:35;15.30;99.90
5210;DHT22;2624;48.048;11.706;2023-08-06T13:24:37;15.20;99.90
5210;DHT22;2624;48.048;11.706;2023-08-06T13:29:40;15.30;99.90
5210;DHT22;2624;48.048;11.706;2023-08-06T13:34:41;15.10;99.90
5210;DHT22;2624;48.048;11.706;2023-08-06T13:39:43;15.20;99.90
5210;DHT22;2624;48.048;11.706;2023-08-06T13:44:46;15.10;99.90
5210;DHT22;2624;48.048;11.706;2023-08-06T13:49:48;14.80;99.90
5210;DHT22;2624;48.048;11.706;2023-08-06T13:54:50;14.90;99.90
5210;DHT22;2624;48.048;11.706;2023-08-06T13:59:53;14.90;99.90
5210;DHT22;2624;48.048;11.706;2023-08-06T14:04:55;15.00;99.90
5210;DHT22;2624;48.048;11.706;2023-08-06T14:09:57;15.00;99.90
5210;DHT22;2624;48.048;11.706;2023-08-06T14:15:00;14.90;99.90
5210;DHT22;2624;48.048;11.706;2023-08-06T14:20:04;14.80;99.90
5210;DHT22;2624;48.048;11.706;2023-08-06T14:25:08;14.70;99.90
5210;DHT22;2624;48.048;11.706;2023-08-06T14:30:12;14.60;99.90
5210;DHT22;2624;48.048;11.706;2023-08-06T14:35:13;14.20;99.90
5210;DHT22;2624;48.048;11.706;2023-08-06T14:40:15;13.90;99.90
5210;DHT22;2624;48.048;11.706;2023-08-06T14:45:18;13.90;99.90
5210;DHT22;2624;48.048;11.706;2023-08-06T14:50:20;13.90;99.90
5210;DHT22;2624;48.048;11.706;2023-08-06T14:55:25;13.80;99.90
5210;DHT22;2624;48.048;11.706;2023-08-06T15:00:28;13.70;99.90
5210;DHT22;2624;48.048;11.706;2023-08-06T15:05:30;13.50;99.90
5210;DHT22;2624;48.048;11.706;2023-08-06T15:10:32;13.60;99.90
5210;DHT22;2624;48.048;11.706;2023-08-06T15:15:35;13.40;99.90
5210;DHT22;2624;48.048;11.706;2023-08-06T15:20:40;13.60;99.90
5210;DHT22;2624;48.048;11.706;2023-08-06T15:25:42;13.50;99.90
5210;DHT22;2624;48.048;11.706;2023-08-06T15:30:49;13.50;99.90
5210;DHT22;2624;48.048;11.706;2023-08-06T15:35:51;13.50;99.90
5210;DHT22;2624;48.048;11.706;2023-08-06T15:40:53;13.40;99.90
5210;DHT22;2624;48.048;11.706;2023-08-06T15:45:56;13.60;99.90
5210;DHT22;2624;48.048;11.706;2023-08-06T15:50:58;13.60;99.90
5210;DHT22;2624;48.048;11.706;2023-08-06T15:56:00;13.40;99.90
5210;DHT22;2624;48.048;11.706;2023-08-06T16:01:04;13.50;99.90
5210;DHT22;2624;48.048;11.706;2023-08-06T16:06:05;13.60;99.90
5210;DHT22;2624;48.048;11.706;2023-08-06T16:11:07;13.40;99.90
5210;DHT22;2624;48.048;11.706;2023-08-06T16:16:10;13.40;99.90
5210;DHT22;2624;48.048;11.706;2023-08-06T16:21:12;13.30;99.90
5210;DHT22;2624;48.048;11.706;2023-08-06T16:26:14;13.40;99.90
5210;DHT22;2624;48.048;11.706;2023-08-06T16:31:18;13.40;99.90
5210;DHT22;2624;48.048;11.706;2023-08-06T16:36:20;13.30;99.90
5210;DHT22;2624;48.048;11.706;2023-08-06T16:41:21;13.60;99.90
5210;DHT22;2624;48.048;11.706;2023-08-06T16:46:24;13.40;99.90
5210;DHT22;2624;48.048;11.706;2023-08-06T16:51:26;13.40;99.90
5210;DHT22;2624;48.048;11.706;2023-08-06T16:56:28;13.60;99.90
5210;DHT22;2624;48.048;11.706;2023-08-06T17:01:32;13.60;99.90
5210;DHT22;2624;48.048;11.706;2023-08-06T17:06:35;13.40;99.90
5210;DHT22;2624;48.048;11.706;2023-08-06T17:11:37;13.40;99.90
5210;DHT22;2624;48.048;11.706;2023-08-06T17:16:40;13.50;99.90
5210;DHT22;2624;48.048;11.706;2023-08-06T17:21:42;13.50;99.90
5210;DHT22;2624;48.048;11.706;2023-08-06T17:26:44;13.40;99.90
5210;DHT22;2624;48.048;11.706;2023-08-06T17:31:47;13.40;99.90
5210;DHT22;2624;48.048;11.706;2023-08-06T17:36:49;13.30;99.90
5210;DHT22;2624;48.048;11.706;2023-08-06T17:41:50;13.40;99.90
5210;DHT22;2624;48.048;11.706;2023-08-06T17:46:53;13.10;99.90
5210;DHT22;2624;48.048;11.706;2023-08-06T17:51:55;13.10;99.90
5210;DHT22;2624;48.048;11.706;2023-08-06T17:56:57;13.10;99.90
5210;DHT22;2624;48.048;11.706;2023-08-06T18:02:00;13.30;99.90
5210;DHT22;2624;48.048;11.706;2023-08-06T18:07:02;13.30;99.90
5210;DHT22;2624;48.048;11.706;2023-08-06T18:12:05;13.30;99.90
5210;DHT22;2624;48.048;11.706;2023-08-06T18:17:10;13.10;99.90
5210;DHT22;2624;48.048;11.706;2023-08-06T18:22:12;13.10;99.90
5210;DHT22;2624;48.048;11.706;2023-08-06T18:27:13;13.20;99.90
5210;DHT22;2624;48.048;11.706;2023-08-06T18:32:20;13.10;99.90
5210;DHT22;2624;48.048;11.706;2023-08-06T18:37:22;12.90;99.90
5210;DHT22;2624;48.048;11.706;2023-08-06T18:42:23;13.00;99.90
5210;DHT22;2624;48.048;11.706;2023-08-06T18:47:27;12.90;99.90
5210;DHT22;2624;48.048;11.706;2023-08-06T18:52:30;12.90;99.90
5210;DHT22;2624;48.048;11.706;2023-08-06T18:57:32;13.10;99.90
5210;DHT22;2624;48.048;11.706;2023-08-06T19:02:35;13.00;99.90
5210;DHT22;2624;48.048;11.706;2023-08-06T19:07:37;13.00;99.90
5210;DHT22;2624;48.048;11.706;2023-08-06T19:12:39;13.20;99.90
5210;DHT22;2624;48.048;11.706;2023-08-06T19:17:42;13.00;99.90
5210;DHT22;2624;48.048;11.706;2023-08-06T19:22:44;13.00;99.90
5210;DHT22;2624;48.048;11.706;2023-08-06T19:27:46;13.10;99.90
5210;DHT22;2624;48.048;11.706;2023-08-06T19:32:49;13.00;99.90
5210;DHT22;2624;48.048;11.706;2023-08-06T19:37:52;13.10;99.90
5210;DHT22;2624;48.048;11.706;2023-08-06T19:42:53;13.00;99.90
5210;DHT22;2624;48.048;11.706;2023-08-06T19:47:56;13.10;99.90
5210;DHT22;2624;48.048;11.706;2023-08-06T19:52:58;13.10;99.90
5210;DHT22;2624;48.048;11.706;2023-08-06T19:58:00;13.00;99.90
5210;DHT22;2624;48.048;11.706;2023-08-06T20:03:03;13.00;99.90
5210;DHT22;2624;48.048;11.706;2023-08-06T20:08:05;13.00;99.90
5210;DHT22;2624;48.048;11.706;2023-08-06T20:13:07;13.00;99.90
5210;DHT22;2624;48.048;11.706;2023-08-06T20:18:10;12.90;99.90
5210;DHT22;2624;48.048;11.706;2023-08-06T20:23:12;12.90;99.90
5210;DHT22;2624;48.048;11.706;2023-08-06T20:28:14;12.70;99.90
5210;DHT22;2624;48.048;11.706;2023-08-06T20:33:17;12.70;99.90
5210;DHT22;2624;48.048;11.706;2023-08-06T20:38:19;12.80;99.90
5210;DHT22;2624;48.048;11.706;2023-08-06T20:43:22;12.90;99.90
5210;DHT22;2624;48.048;11.706;2023-08-06T20:48:25;12.60;99.90
5210;DHT22;2624;48.048;11.706;2023-08-06T20:53:27;12.70;99.90
5210;DHT22;2624;48.048;11.706;2023-08-06T20:58:30;12.70;99.90
5210;DHT22;2624;48.048;11.706;2023-08-06T21:03:33;12.80;99.90
5210;DHT22;2624;48.048;11.706;2023-08-06T21:08:35;12.60;99.90
5210;DHT22;2624;48.048;11.706;2023-08-06T21:13:37;12.80;99.90
5210;DHT22;2624;48.048;11.706;2023-08-06T21:18:40;12.60;99.90
5210;DHT22;2624;48.048;11.706;2023-08-06T21:23:42;12.60;99.90
5210;DHT22;2624;48.048;11.706;2023-08-06T21:28:44;12.60;99.90
5210;DHT22;2624;48.048;11.706;2023-08-06T21:33:47;12.60;99.90
5210;DHT22;2624;48.048;11.706;2023-08-06T21:38:49;12.50;99.90
5210;DHT22;2624;48.048;11.706;2023-08-06T21:43:51;12.40;99.90
5210;DHT22;2624;48.048;11.706;2023-08-06T21:48:55;12.60;99.90
5210;DHT22;2624;48.048;11.706;2023-08-06T21:53:57;12.50;99.90
5210;DHT22;2624;48.048;11.706;2023-08-06T21:58:59;12.40;99.90
5210;DHT22;2624;48.048;11.706;2023-08-06T22:04:03;12.50;99.90
5210;DHT22;2624;48.048;11.706;2023-08-06T22:09:04;12.50;99.90
5210;DHT22;2624;48.048;11.706;2023-08-06T22:14:06;12.50;99.90
5210;DHT22;2624;48.048;11.706;2023-08-06T22:19:09;12.40;99.90
5210;DHT22;2624;48.048;11.706;2023-08-06T22:24:11;12.50;99.90
5210;DHT22;2624;48.048;11.706;2023-08-06T22:29:13;12.30;99.90
5210;DHT22;2624;48.048;11.706;2023-08-06T22:34:16;12.40;99.90
5210;DHT22;2624;48.048;11.706;2023-08-06T22:39:18;12.50;99.90
5210;DHT22;2624;48.048;11.706;2023-08-06T22:44:19;12.40;99.90
5210;DHT22;2624;48.048;11.706;2023-08-06T22:49:23;12.30;99.90
5210;DHT22;2624;48.048;11.706;2023-08-06T22:54:24;12.50;99.90
5210;DHT22;2624;48.048;11.706;2023-08-06T22:59:26;12.40;99.90
5210;DHT22;2624;48.048;11.706;2023-08-06T23:04:29;12.40;99.90
5210;DHT22;2624;48.048;11.706;2023-08-06T23:09:31;12.40;99.90
5210;DHT22;2624;48.048;11.706;2023-08-06T23:14:33;12.30;99.90
5210;DHT22;2624;48.048;11.706;2023-08-06T23:19:36;12.40;99.90
5210;DHT22;2624;48.048;11.706;2023-08-06T23:24:38;12.50;99.90
5210;DHT22;2624;48.048;11.706;2023-08-06T23:29:40;12.20;99.90
5210;DHT22;2624;48.048;11.706;2023-08-06T23:34:43;12.40;99.90
5210;DHT22;2624;48.048;11.706;2023-08-06T23:39:45;12.40;99.90
5210;DHT22;2624;48.048;11.706;2023-08-06T23:44:47;12.30;99.90
5210;DHT22;2624;48.048;11.706;2023-08-06T23:49:50;12.30;99.90
5210;DHT22;2624;48.048;11.706;2023-08-06T23:54:51;12.20;99.90
5210;DHT22;2624;48.048;11.706;2023-08-06T23:59:53;12.20;99.90
